createdAt,value
2018-08-10T00:03:00.916Z,13.2
2018-08-10T00:08:03.329Z,13.2
2018-08-10T00:13:05.686Z,13.2
2018-08-10T00:18:07.816Z,13.2
2018-08-10T00:23:10.143Z,13.2
2018-08-10T00:28:12.438Z,13.1
2018-08-10T00:33:14.722Z,13.1
2018-08-10T00:38:17.026Z,13.1
2018-08-10T00:43:19.259Z,13.1
2018-08-10T00:48:21.641Z,13
2018-08-10T00:53:23.944Z,13
2018-08-10T00:58:26.193Z,13
2018-08-10T01:03:28.596Z,12.9
2018-08-10T01:08:30.894Z,12.9
2018-08-10T01:13:33.339Z,12.9
2018-08-10T01:18:35.351Z,12.8
2018-08-10T01:23:37.710Z,12.8
2018-08-10T01:28:40.151Z,12.8
2018-08-10T01:33:42.370Z,12.7
2018-08-10T01:38:44.577Z,12.7
2018-08-10T01:43:46.840Z,12.6
2018-08-10T01:48:49.264Z,12.6
2018-08-10T01:53:51.389Z,12.6
2018-08-10T01:58:53.763Z,12.6
2018-08-10T02:03:55.974Z,12.6
2018-08-10T02:08:58.342Z,12.6
2018-08-10T02:14:00.854Z,12.6
2018-08-10T02:19:04.681Z,12.6
2018-08-10T02:24:05.316Z,12.6
2018-08-10T02:29:07.554Z,12.6
2018-08-10T02:34:09.915Z,12.6
2018-08-10T02:39:12.053Z,12.6
2018-08-10T02:44:14.480Z,12.7
2018-08-10T02:49:16.738Z,12.8
2018-08-10T02:54:19.114Z,12.8
2018-08-10T02:59:21.305Z,12.8
2018-08-10T03:04:23.543Z,12.8
2018-08-10T03:09:25.769Z,12.9
2018-08-10T03:14:28.193Z,12.8
2018-08-10T03:19:30.395Z,12.8
2018-08-10T03:24:34.205Z,12.8
2018-08-10T03:29:35.314Z,12.8
2018-08-10T03:34:37.270Z,12.8
2018-08-10T03:39:39.634Z,12.7
2018-08-10T03:44:42.053Z,12.7
2018-08-10T03:49:44.257Z,12.7
2018-08-10T03:54:46.530Z,12.7
2018-08-10T03:59:48.897Z,12.7
2018-08-10T04:04:51.171Z,12.7
2018-08-10T04:09:53.366Z,12.7
2018-08-10T04:14:55.694Z,12.7
2018-08-10T04:19:57.917Z,12.7
2018-08-10T04:25:00.255Z,12.7
2018-08-10T04:30:02.647Z,12.6
2018-08-10T04:35:04.925Z,12.6
2018-08-10T04:40:07.285Z,12.6
2018-08-10T04:45:09.459Z,12.7
2018-08-10T04:50:12.479Z,12.6
2018-08-10T04:55:14.152Z,12.6
2018-08-10T05:00:16.363Z,12.7
2018-08-10T05:05:18.591Z,12.7
2018-08-10T05:10:20.835Z,12.7
2018-08-10T05:15:23.175Z,12.8
2018-08-10T05:20:25.614Z,12.8
2018-08-10T05:25:27.944Z,12.8
2018-08-10T05:30:30.256Z,12.8
2018-08-10T05:35:32.545Z,12.9
2018-08-10T05:40:34.819Z,13
2018-08-10T05:45:37.270Z,13.1
2018-08-10T05:50:39.316Z,13.1
2018-08-10T05:55:41.634Z,13.2
2018-08-10T06:00:43.994Z,13.2
2018-08-10T06:05:46.269Z,13.3
2018-08-10T06:10:48.587Z,13.4
2018-08-10T06:15:50.731Z,13.5
2018-08-10T06:20:53.066Z,13.6
2018-08-10T06:25:55.382Z,13.8
2018-08-10T06:30:57.706Z,13.9
2018-08-10T06:36:00.015Z,14.2
2018-08-10T06:41:02.360Z,14.4
2018-08-10T06:46:04.725Z,14.6
2018-08-10T06:51:07.015Z,14.7
2018-08-10T06:56:09.122Z,14.9
2018-08-10T07:01:11.390Z,15.3
2018-08-10T07:06:13.800Z,15.4
2018-08-10T07:11:15.904Z,15.7
2018-08-10T07:16:18.509Z,15.7
2018-08-10T07:21:20.523Z,15.9
2018-08-10T07:26:23.065Z,16
2018-08-10T07:31:25.099Z,16.200001
2018-08-10T07:36:27.443Z,16.6
2018-08-10T07:41:29.959Z,17
2018-08-10T07:46:32.209Z,17.299999
2018-08-10T07:51:34.348Z,17.5
2018-08-10T07:56:36.584Z,17.5
2018-08-10T08:01:39.187Z,17.799999
2018-08-10T08:06:41.306Z,18
2018-08-10T08:11:43.818Z,18.200001
2018-08-10T08:16:45.963Z,18.299999
2018-08-10T08:21:48.235Z,18.5
2018-08-10T08:26:50.353Z,18.6
2018-08-10T08:31:52.709Z,18.9
2018-08-10T08:36:55.013Z,19.200001
2018-08-10T08:41:57.336Z,19.4
2018-08-10T08:47:01.017Z,19.6
2018-08-10T08:52:01.949Z,19.6
2018-08-10T08:57:04.245Z,19.299999
2018-08-10T09:02:06.486Z,19.700001
2018-08-10T09:07:08.785Z,19.799999
2018-08-10T09:17:13.529Z,18.9
2018-08-10T09:22:15.710Z,19.1
2018-08-10T09:27:17.948Z,18.700001
2018-08-10T09:32:20.363Z,18.4
2018-08-10T09:37:22.468Z,19.200001
2018-08-10T09:42:24.805Z,19.799999
2018-08-10T09:47:27.192Z,19.700001
2018-08-10T09:52:31.397Z,19.6
2018-08-10T09:57:31.672Z,20.200001
2018-08-10T10:02:34.032Z,21
2018-08-10T10:07:36.304Z,21.700001
2018-08-10T10:12:38.630Z,21.1
2018-08-10T10:17:40.781Z,20.700001
2018-08-10T10:27:45.455Z,21.700001
2018-08-10T10:32:47.865Z,21.9
2018-08-10T10:37:49.962Z,22.700001
2018-08-10T10:42:52.264Z,22.799999
2018-08-10T10:47:54.657Z,22.9
2018-08-10T10:52:56.834Z,23.200001
2018-08-10T10:57:59.199Z,23.799999
2018-08-10T11:03:01.725Z,23.799999
2018-08-10T11:08:03.836Z,23.5
2018-08-10T11:13:06.151Z,23.700001
2018-08-10T11:18:08.513Z,23.9
2018-08-10T11:23:10.843Z,24
2018-08-10T11:28:13.001Z,24.5
2018-08-10T11:33:15.273Z,23.9
2018-08-10T11:38:17.646Z,22.5
2018-08-10T11:43:19.914Z,22
2018-08-10T11:48:22.243Z,21.700001
2018-08-10T11:53:24.431Z,21.200001
2018-08-10T11:58:26.660Z,20.799999
2018-08-10T12:03:29.054Z,20.1
2018-08-10T12:08:31.267Z,19.1
2018-08-10T12:13:33.661Z,18.4
2018-08-10T12:18:36.072Z,17.799999
2018-08-10T12:23:38.310Z,17.4
2018-08-10T12:28:40.575Z,17.4
2018-08-10T12:33:42.808Z,18.1
2018-08-10T12:43:47.436Z,21.4
2018-08-10T12:48:50.914Z,22.1
2018-08-10T12:53:51.929Z,22.9
2018-08-10T12:58:54.305Z,23.200001
2018-08-10T13:03:56.594Z,23.299999
2018-08-10T13:08:58.918Z,22.6
2018-08-10T13:14:01.180Z,21.5
2018-08-10T13:19:03.489Z,21.799999
2018-08-10T13:24:05.847Z,23
2018-08-10T13:29:08.137Z,22.200001
2018-08-10T13:34:10.262Z,21.4
2018-08-10T13:39:12.614Z,21.1
2018-08-10T13:44:14.906Z,20.700001
2018-08-10T13:49:17.445Z,20.6
2018-08-10T13:54:19.506Z,20.799999
2018-08-10T13:59:21.870Z,21.200001
2018-08-10T14:04:24.075Z,21.6
2018-08-10T14:09:26.323Z,21.9
2018-08-10T14:14:28.864Z,22.1
2018-08-10T14:19:31.036Z,21.700001
2018-08-10T14:24:33.249Z,21.5
2018-08-10T14:29:35.657Z,22.799999
2018-08-10T14:34:37.867Z,23.299999
2018-08-10T14:39:40.204Z,23.4
2018-08-10T14:44:42.444Z,23.299999
2018-08-10T14:49:44.754Z,23.799999
2018-08-10T14:54:47.089Z,24.299999
2018-08-10T14:59:49.299Z,24
2018-08-10T15:04:51.564Z,23.4
2018-08-10T15:09:53.961Z,23.299999
2018-08-10T15:14:56.291Z,22.799999
2018-08-10T15:19:58.452Z,22.700001
2018-08-10T15:25:00.851Z,22.4
2018-08-10T15:30:03.219Z,22.799999
2018-08-10T15:35:05.468Z,23.4
2018-08-10T15:40:07.762Z,23.700001
2018-08-10T15:45:10.224Z,23.700001
2018-08-10T15:50:12.322Z,23.1
2018-08-10T15:55:14.668Z,22.4
2018-08-10T16:00:16.838Z,22.1
2018-08-10T16:05:19.186Z,22.1
2018-08-10T16:10:21.614Z,21.9
2018-08-10T16:15:23.836Z,21.700001
2018-08-10T16:20:26.003Z,21.6
2018-08-10T16:25:28.299Z,21.5
2018-08-10T16:30:30.725Z,21.4
2018-08-10T16:35:32.851Z,21.299999
2018-08-10T16:40:35.230Z,21.200001
2018-08-10T16:45:37.482Z,21.200001
2018-08-10T16:50:39.749Z,21.200001
2018-08-10T16:55:42.067Z,21
2018-08-10T17:00:44.416Z,20.9
2018-08-10T17:05:46.742Z,20.9
2018-08-10T17:10:49.151Z,20.799999
2018-08-10T17:15:51.341Z,20.799999
2018-08-10T17:20:55.037Z,20.700001
2018-08-10T17:25:55.833Z,20.700001
2018-08-10T17:30:58.113Z,20.6
2018-08-10T17:36:00.476Z,20.6
2018-08-10T17:41:02.918Z,20.5
2018-08-10T17:46:05.040Z,20.4
2018-08-10T17:51:07.358Z,20.4
2018-08-10T17:56:09.608Z,20.4
2018-08-10T18:01:11.965Z,20.4
2018-08-10T18:06:14.260Z,20.4
2018-08-10T18:11:16.453Z,20.299999
2018-08-10T18:16:18.776Z,20.200001
2018-08-10T18:21:21.190Z,20.1
2018-08-10T18:26:23.405Z,20
2018-08-10T18:31:25.793Z,20
2018-08-10T18:36:28.094Z,20
2018-08-10T18:41:30.339Z,19.9
2018-08-10T18:46:32.585Z,19.9
2018-08-10T18:51:34.877Z,19.700001
2018-08-10T18:56:37.316Z,19.700001
2018-08-10T19:01:39.455Z,19.5
2018-08-10T19:06:41.869Z,18.9
2018-08-10T19:11:44.180Z,18.6
2018-08-10T19:16:46.301Z,18.200001
2018-08-10T19:26:52.781Z,17.799999
2018-08-10T19:31:53.285Z,17.5
2018-08-10T19:36:55.542Z,17.299999
2018-08-10T19:41:57.905Z,17.1
2018-08-10T19:47:00.153Z,17
2018-08-10T19:52:02.733Z,16.9
2018-08-10T19:57:04.646Z,16.799999
2018-08-10T20:02:07.064Z,16.700001
2018-08-10T20:07:09.327Z,16.6
2018-08-10T20:12:11.670Z,16.5
2018-08-10T20:17:13.869Z,16.5
2018-08-10T20:22:16.184Z,16.5
2018-08-10T20:27:18.522Z,16.5
2018-08-10T20:32:20.766Z,16.4
2018-08-10T20:37:23.097Z,16.4
2018-08-10T20:42:25.444Z,16.200001
2018-08-10T20:47:28.218Z,16.200001
2018-08-10T20:52:29.956Z,16.200001
2018-08-10T20:57:32.271Z,16.200001
2018-08-10T21:02:34.559Z,16.200001
2018-08-10T21:07:36.803Z,16.299999
2018-08-10T21:12:39.071Z,16.1
2018-08-10T21:17:41.452Z,15.8
2018-08-10T21:22:43.747Z,15.6
2018-08-10T21:27:45.986Z,15.4
2018-08-10T21:32:48.224Z,15.4
2018-08-10T21:37:50.805Z,15.3
2018-08-10T21:42:54.633Z,15.3
2018-08-10T21:47:55.154Z,15.3
2018-08-10T21:52:57.514Z,15.3
2018-08-10T21:57:59.734Z,15.2
2018-08-10T22:03:02.141Z,15
2018-08-10T22:08:04.372Z,14.9
2018-08-10T22:13:06.702Z,14.9
2018-08-10T22:18:08.873Z,14.9
2018-08-10T22:23:11.260Z,14.8
2018-08-10T22:28:13.514Z,14.8
2018-08-10T22:33:15.819Z,14.5
2018-08-10T22:38:18.274Z,14.1
2018-08-10T22:43:20.500Z,13.9
2018-08-10T22:48:22.793Z,13.8
2018-08-10T22:53:25.051Z,13.8
2018-08-10T22:58:27.262Z,13.6
2018-08-10T23:03:29.556Z,13.6
2018-08-10T23:08:31.922Z,13.5
2018-08-10T23:13:34.113Z,13.5
2018-08-10T23:18:36.555Z,13.5
2018-08-10T23:23:38.870Z,13.5
2018-08-10T23:28:41.017Z,13.6
2018-08-10T23:33:43.355Z,13.6
2018-08-10T23:38:45.642Z,13.5
2018-08-10T23:43:47.954Z,13.5
2018-08-10T23:48:50.241Z,13.5
2018-08-10T23:53:52.463Z,13.4
2018-08-10T23:58:54.989Z,13.4
